LIPE/BLQ METAR and TAF weather

Enter ICAO airport designator
Station Type Date Time Source
LIPE METAR 2020/02/22 07:20 UTC NOAA

LIPE 220720Z 21004KT 7000 NSC 05/02 Q1031


Station Type Date Time Source
LIPE Decoded METAR 2020/02/22 07:20 UTC NOAA

Bologna / Borgo Panigale, Italy (LIPE) 44-32N 011-18E 49M
Feb 22, 2020 - 02:20 AM EST / 2020.02.22 0720 UTC
Wind: from the SSW (210 degrees) at 5 MPH (4 KT):0
Visibility: 4 mile(s):0
Temperature: 41 F (5 C)
Dew Point: 35 F (2 C)
Relative Humidity: 80%
Pressure (altimeter): 30.45 in. Hg (1031 hPa)
ob: LIPE 220720Z 21004KT 7000 NSC 05/02 Q1031
cycle: 7

Station Type Date Time Source
LIPE TAF 2020/02/22 06:25 UTC NOAA

TAF LIPE 220500Z 2206/2306 28006KT CAVOK
TEMPO 2222/2306 2000 BR

Example: see airport list